createdAt,value
2023-04-16T00:00:57.156Z,0.00
2023-04-16T00:01:57.283Z,0.00
2023-04-16T00:02:57.180Z,0.00
2023-04-16T00:03:57.264Z,0.00
2023-04-16T00:04:57.302Z,0.00
2023-04-16T00:05:57.070Z,0.00
2023-04-16T00:06:57.044Z,0.00
2023-04-16T00:07:57.055Z,0.00
2023-04-16T00:08:57.017Z,0.00
2023-04-16T00:09:57.029Z,0.00
2023-04-16T00:10:57.152Z,0.00
2023-04-16T00:11:56.963Z,0.00
2023-04-16T00:12:56.999Z,0.00
2023-04-16T00:13:56.978Z,0.00
2023-04-16T00:14:56.943Z,0.00
2023-04-16T00:15:56.925Z,0.00
2023-04-16T00:16:56.989Z,0.00
2023-04-16T00:17:56.945Z,0.00
2023-04-16T00:18:56.946Z,0.00
2023-04-16T00:19:56.876Z,0.00
2023-04-16T00:20:56.863Z,0.00
2023-04-16T00:21:56.812Z,0.00
2023-04-16T00:22:56.904Z,0.00
2023-04-16T00:23:56.795Z,0.00
2023-04-16T00:24:56.828Z,0.00
2023-04-16T00:25:56.792Z,0.00
2023-04-16T00:26:56.774Z,0.00
2023-04-16T00:27:56.794Z,0.00
2023-04-16T00:28:56.863Z,0.00
2023-04-16T00:29:56.708Z,0.00
2023-04-16T00:30:56.828Z,0.00
2023-04-16T00:31:56.707Z,0.00
2023-04-16T00:32:56.792Z,0.00
2023-04-16T00:33:56.684Z,0.00
2023-04-16T00:34:56.720Z,0.00
2023-04-16T00:35:56.657Z,0.00
2023-04-16T00:36:56.642Z,0.00
2023-04-16T00:37:56.603Z,0.00
2023-04-16T00:38:56.642Z,0.00
2023-04-16T00:39:56.569Z,0.00
2023-04-16T00:40:56.647Z,0.00
2023-04-16T00:41:56.571Z,0.00
2023-04-16T00:42:56.568Z,0.00
2023-04-16T00:43:56.536Z,0.00
2023-04-16T00:44:56.560Z,0.00
2023-04-16T00:45:56.597Z,0.00
2023-04-16T00:46:56.636Z,0.00
2023-04-16T00:47:57.728Z,0.00
2023-04-16T00:48:56.503Z,0.00
2023-04-16T00:49:56.459Z,0.00
2023-04-16T00:50:56.465Z,0.00
2023-04-16T00:51:56.418Z,0.00
2023-04-16T00:52:56.497Z,0.00
2023-04-16T00:53:56.404Z,0.00
2023-04-16T00:54:56.397Z,0.00
2023-04-16T00:55:56.374Z,0.00
2023-04-16T00:56:56.372Z,0.00
2023-04-16T00:57:56.338Z,0.00
2023-04-16T00:58:56.481Z,0.00
2023-04-16T00:59:56.306Z,0.00
2023-04-16T01:00:56.338Z,0.00
2023-04-16T01:01:56.436Z,0.00
2023-04-16T01:02:56.422Z,0.00
2023-04-16T01:03:56.477Z,0.00
2023-04-16T01:04:56.293Z,0.00
2023-04-16T01:05:56.224Z,0.00
2023-04-16T01:06:56.262Z,0.00
2023-04-16T01:07:56.253Z,0.00
2023-04-16T01:08:56.203Z,0.00
2023-04-16T01:09:56.175Z,0.00
2023-04-16T01:10:56.244Z,0.00
2023-04-16T01:11:56.148Z,0.00
2023-04-16T01:12:56.214Z,0.00
2023-04-16T01:13:56.139Z,0.00
2023-04-16T01:14:56.120Z,0.00
2023-04-16T01:15:56.127Z,0.00
2023-04-16T01:16:56.149Z,0.00
2023-04-16T01:17:56.096Z,0.00
2023-04-16T01:18:56.096Z,0.00
2023-04-16T01:19:56.031Z,0.00
2023-04-16T01:20:56.080Z,0.00
2023-04-16T01:21:56.058Z,0.00
2023-04-16T01:22:56.127Z,0.00
2023-04-16T01:23:55.974Z,0.00
2023-04-16T01:24:56.017Z,0.00
2023-04-16T01:25:55.976Z,0.00
2023-04-16T01:26:55.994Z,0.00
2023-04-16T01:27:55.958Z,0.00
2023-04-16T01:28:55.970Z,0.00
2023-04-16T01:29:55.885Z,0.00
2023-04-16T01:30:55.954Z,0.00
2023-04-16T01:31:55.979Z,0.00
2023-04-16T01:32:55.951Z,0.00
2023-04-16T01:33:55.899Z,0.00
2023-04-16T01:34:55.894Z,0.00
2023-04-16T01:35:55.839Z,0.00
2023-04-16T01:36:55.825Z,0.00
2023-04-16T01:37:55.795Z,0.00
2023-04-16T01:38:55.837Z,0.00
2023-04-16T01:39:55.754Z,0.00
2023-04-16T01:40:55.843Z,0.00
2023-04-16T01:41:55.764Z,0.00
2023-04-16T01:42:55.742Z,0.00
2023-04-16T01:43:55.731Z,0.00
2023-04-16T01:44:55.717Z,0.00
2023-04-16T01:45:55.685Z,0.00
2023-04-16T01:46:55.883Z,0.00
2023-04-16T01:47:55.725Z,0.00
2023-04-16T01:48:55.693Z,0.00
2023-04-16T01:49:55.681Z,0.00
2023-04-16T01:50:55.644Z,0.00
2023-04-16T01:51:55.626Z,0.00
2023-04-16T01:52:55.729Z,0.00
2023-04-16T01:53:55.602Z,0.00
2023-04-16T01:54:55.619Z,0.00
2023-04-16T01:55:55.564Z,0.00
2023-04-16T01:56:55.587Z,0.00
2023-04-16T01:57:55.529Z,0.00
2023-04-16T01:58:55.576Z,0.00
2023-04-16T01:59:55.492Z,0.00
2023-04-16T02:00:55.559Z,0.00
2023-04-16T02:01:55.567Z,0.00
2023-04-16T02:02:55.567Z,0.00
2023-04-16T02:03:55.588Z,0.00
2023-04-16T02:04:55.484Z,0.00
2023-04-16T02:05:55.408Z,0.00
2023-04-16T02:06:55.473Z,0.00
2023-04-16T02:07:55.383Z,0.00
2023-04-16T02:08:55.418Z,0.00
2023-04-16T02:09:55.402Z,0.00
2023-04-16T02:10:55.396Z,0.00
2023-04-16T02:11:55.324Z,0.00
2023-04-16T02:12:55.382Z,0.00
2023-04-16T02:13:55.330Z,0.00
2023-04-16T02:14:55.315Z,0.00
2023-04-16T02:15:55.311Z,0.00
2023-04-16T02:16:55.430Z,0.00
2023-04-16T02:17:55.282Z,0.00
2023-04-16T02:18:55.280Z,0.00
2023-04-16T02:19:55.239Z,0.00
2023-04-16T02:20:55.253Z,0.00
2023-04-16T02:21:55.213Z,0.00
2023-04-16T02:22:55.276Z,0.00
2023-04-16T02:23:55.180Z,0.00
2023-04-16T02:24:55.185Z,0.00
2023-04-16T02:25:55.169Z,0.00
2023-04-16T02:26:55.170Z,0.00
2023-04-16T02:27:55.134Z,0.00
2023-04-16T02:28:55.179Z,0.00
2023-04-16T02:29:55.079Z,0.00
2023-04-16T02:30:55.118Z,0.00
2023-04-16T02:31:55.104Z,0.00
2023-04-16T02:32:55.135Z,0.00
2023-04-16T02:33:55.079Z,0.00
2023-04-16T02:34:55.238Z,0.00
2023-04-16T02:35:55.021Z,0.00
2023-04-16T02:36:55.018Z,0.00
2023-04-16T02:37:54.975Z,0.00
2023-04-16T02:38:55.012Z,0.00
2023-04-16T02:39:54.944Z,0.00
2023-04-16T02:40:55.029Z,0.00
2023-04-16T02:41:54.945Z,0.00
2023-04-16T02:42:54.937Z,0.00
2023-04-16T02:43:54.923Z,0.00
2023-04-16T02:44:54.905Z,0.00
2023-04-16T02:45:54.924Z,0.00
2023-04-16T02:46:54.979Z,0.00
2023-04-16T02:47:54.876Z,0.00
2023-04-16T02:48:54.904Z,0.00
2023-04-16T02:49:54.844Z,0.00
2023-04-16T02:50:54.830Z,0.00
2023-04-16T02:51:54.815Z,0.00
2023-04-16T02:52:54.933Z,0.00
2023-04-16T02:53:54.777Z,0.00
2023-04-16T02:54:54.803Z,0.00
2023-04-16T02:55:54.733Z,0.00
2023-04-16T02:56:54.789Z,0.00
2023-04-16T02:57:54.733Z,0.00
2023-04-16T02:58:54.761Z,0.00
2023-04-16T02:59:54.717Z,0.00
2023-04-16T03:00:54.791Z,0.00
2023-04-16T03:01:54.772Z,0.00
2023-04-16T03:02:54.862Z,0.00
2023-04-16T03:03:54.691Z,0.00
2023-04-16T03:04:54.688Z,0.00
2023-04-16T03:05:54.628Z,0.00
2023-04-16T03:06:54.642Z,0.00
2023-04-16T03:07:54.572Z,0.00
2023-04-16T03:08:54.611Z,0.00
2023-04-16T03:09:54.572Z,0.00
2023-04-16T03:10:54.616Z,0.00
2023-04-16T03:11:54.548Z,0.00
2023-04-16T03:12:54.553Z,0.00
2023-04-16T03:13:54.494Z,0.00
2023-04-16T03:14:54.534Z,0.00
2023-04-16T03:15:54.595Z,0.00
2023-04-16T03:16:54.525Z,0.00
2023-04-16T03:17:54.460Z,0.00
2023-04-16T03:18:54.480Z,0.00
2023-04-16T03:19:54.427Z,0.00
2023-04-16T03:20:54.450Z,0.00
2023-04-16T03:21:54.415Z,0.00
2023-04-16T03:22:54.521Z,0.00
2023-04-16T03:23:54.387Z,0.00
2023-04-16T03:24:54.380Z,0.00
2023-04-16T03:25:54.370Z,0.00
2023-04-16T03:26:54.389Z,0.00
2023-04-16T03:27:54.307Z,0.00
2023-04-16T03:28:54.401Z,0.00
2023-04-16T03:29:55.055Z,0.00
2023-04-16T03:30:54.341Z,0.00
2023-04-16T03:31:54.261Z,0.00
2023-04-16T03:32:54.323Z,0.00
2023-04-16T03:33:54.249Z,0.00
2023-04-16T03:34:54.280Z,0.00
2023-04-16T03:35:54.233Z,0.00
2023-04-16T03:36:54.227Z,0.00
2023-04-16T03:37:54.177Z,0.00
2023-04-16T03:38:54.212Z,0.00
2023-04-16T03:39:54.176Z,0.00
2023-04-16T03:40:54.231Z,0.00
2023-04-16T03:41:54.157Z,0.00
2023-04-16T03:42:54.156Z,0.00
2023-04-16T03:43:54.128Z,0.00
2023-04-16T03:44:54.112Z,0.00
2023-04-16T03:45:54.099Z,0.00
2023-04-16T03:46:54.202Z,0.00
2023-04-16T03:47:54.121Z,0.00
2023-04-16T03:48:54.057Z,0.00
2023-04-16T03:49:54.045Z,0.00
2023-04-16T03:50:54.033Z,0.00
2023-04-16T03:51:54.039Z,0.00
2023-04-16T03:52:54.128Z,0.00
2023-04-16T03:53:54.011Z,0.00
2023-04-16T03:54:53.950Z,1.00
2023-04-16T03:55:54.016Z,1.00
2023-04-16T03:56:53.920Z,1.00
2023-04-16T03:57:53.937Z,1.00
2023-04-16T03:58:53.979Z,1.00
2023-04-16T03:59:53.915Z,0.00
2023-04-16T04:00:53.901Z,2.00
2023-04-16T04:01:53.976Z,2.00
2023-04-16T04:02:53.998Z,2.00
2023-04-16T04:03:54.015Z,4.00
2023-04-16T04:04:53.918Z,0.00
2023-04-16T04:05:53.859Z,9.00
2023-04-16T04:06:53.792Z,0.00
2023-04-16T04:07:53.848Z,6.00
2023-04-16T04:08:53.772Z,1.00
2023-04-16T04:09:53.781Z,5.00
2023-04-16T04:10:53.795Z,7.00
2023-04-16T04:11:53.776Z,9.00
2023-04-16T04:12:53.734Z,7.00
2023-04-16T04:13:53.751Z,11.00
2023-04-16T04:14:53.715Z,14.00
2023-04-16T04:15:53.776Z,10.00
2023-04-16T04:16:53.685Z,23.00
2023-04-16T04:17:53.711Z,25.00
2023-04-16T04:18:53.685Z,23.00
2023-04-16T04:20:00.937Z,21.00
2023-04-16T04:20:54.607Z,22.00
2023-04-16T04:21:53.649Z,30.00
2023-04-16T04:22:53.634Z,37.00
2023-04-16T04:23:55.632Z,25.00
2023-04-16T04:24:53.602Z,33.00
2023-04-16T04:25:53.675Z,44.00
2023-04-16T04:26:53.530Z,51.00
2023-04-16T04:27:53.561Z,62.00
2023-04-16T04:28:53.527Z,69.00
2023-04-16T04:29:53.526Z,69.00
2023-04-16T04:30:53.514Z,61.00
2023-04-16T04:31:53.590Z,78.00
2023-04-16T04:32:53.543Z,90.00
2023-04-16T04:33:53.497Z,122.00
2023-04-16T04:34:53.471Z,152.00
2023-04-16T04:35:53.453Z,155.00
2023-04-16T04:36:53.428Z,148.00
2023-04-16T04:37:53.455Z,136.00
2023-04-16T04:38:53.381Z,133.00
2023-04-16T04:39:53.428Z,176.00
2023-04-16T04:40:53.460Z,183.00
2023-04-16T04:41:53.376Z,157.00
2023-04-16T04:42:53.349Z,154.00
2023-04-16T04:43:53.338Z,152.00
2023-04-16T04:44:53.326Z,154.00
2023-04-16T04:45:53.384Z,183.00
2023-04-16T04:46:53.310Z,212.00
2023-04-16T04:47:53.363Z,208.00
2023-04-16T04:48:53.254Z,209.00
2023-04-16T04:49:53.256Z,257.00
2023-04-16T04:50:53.251Z,343.00
2023-04-16T04:51:53.247Z,366.00
2023-04-16T04:52:53.337Z,352.00
2023-04-16T04:53:53.241Z,343.00
2023-04-16T04:54:53.203Z,377.00
2023-04-16T04:55:55.614Z,419.00
2023-04-16T04:56:54.138Z,443.00
2023-04-16T04:57:53.175Z,430.00
2023-04-16T04:58:53.170Z,382.00
2023-04-16T04:59:53.119Z,333.00
2023-04-16T05:00:53.143Z,349.00
2023-04-16T05:01:53.149Z,433.00
2023-04-16T05:02:53.112Z,470.00
2023-04-16T05:03:53.119Z,426.00
2023-04-16T05:04:53.156Z,484.00
2023-04-16T05:05:53.080Z,498.00
2023-04-16T05:06:53.028Z,455.00
2023-04-16T05:07:53.046Z,479.00
2023-04-16T05:08:52.990Z,585.00
2023-04-16T05:09:52.989Z,617.00
2023-04-16T05:10:53.091Z,478.00
2023-04-16T05:11:52.995Z,462.00
2023-04-16T05:12:52.938Z,589.00
2023-04-16T05:13:52.965Z,620.00
2023-04-16T05:14:52.924Z,498.00
2023-04-16T05:15:52.988Z,456.00
2023-04-16T05:16:53.032Z,551.00
2023-04-16T05:17:52.939Z,598.00
2023-04-16T05:18:52.871Z,622.00
2023-04-16T05:19:52.872Z,759.00
2023-04-16T05:20:52.835Z,869.00
2023-04-16T05:21:52.903Z,900.00
2023-04-16T05:22:52.905Z,836.00
2023-04-16T05:23:52.833Z,765.00
2023-04-16T05:24:52.793Z,836.00
2023-04-16T05:25:52.814Z,1073.00
2023-04-16T05:26:52.736Z,1387.00
2023-04-16T05:27:52.776Z,1446.00
2023-04-16T05:28:52.755Z,1315.00
2023-04-16T05:29:52.720Z,1174.00
2023-04-16T05:30:52.753Z,1248.00
2023-04-16T05:31:52.709Z,1396.00
2023-04-16T05:32:52.756Z,1323.00
2023-04-16T05:33:52.699Z,1270.00
2023-04-16T05:34:52.666Z,1289.00
2023-04-16T05:35:52.668Z,1356.00
2023-04-16T05:36:52.595Z,1177.00
2023-04-16T05:37:52.629Z,969.00
2023-04-16T05:38:52.612Z,1127.00
2023-04-16T05:39:52.618Z,1520.00
2023-04-16T05:40:52.719Z,1769.00
2023-04-16T05:41:52.558Z,1869.00
2023-04-16T05:42:52.560Z,2021.00
2023-04-16T05:43:56.780Z,2063.00
2023-04-16T05:44:52.515Z,1763.00
2023-04-16T05:45:52.552Z,1520.00
2023-04-16T05:46:52.522Z,1702.00
2023-04-16T05:47:52.514Z,2049.00
2023-04-16T05:48:52.436Z,1962.00
2023-04-16T05:49:52.456Z,1889.00
2023-04-16T05:50:52.460Z,2179.00
2023-04-16T05:51:53.149Z,2277.00
2023-04-16T05:52:52.554Z,1974.00
2023-04-16T05:53:52.420Z,1725.00
2023-04-16T05:54:52.364Z,1801.00
2023-04-16T05:55:52.397Z,2199.00
2023-04-16T05:56:52.341Z,2453.00
2023-04-16T05:57:52.347Z,2738.00
2023-04-16T05:58:52.389Z,2760.00
2023-04-16T05:59:52.318Z,2787.00
2023-04-16T06:00:52.315Z,3038.00
2023-04-16T06:01:52.335Z,3172.00
2023-04-16T06:02:52.378Z,3207.00
2023-04-16T06:03:52.375Z,3127.00
2023-04-16T06:04:52.261Z,3042.00
2023-04-16T06:05:52.308Z,3167.00
2023-04-16T06:06:52.238Z,3262.00
2023-04-16T06:07:52.231Z,3295.00
2023-04-16T06:08:52.195Z,3267.00
2023-04-16T06:09:52.232Z,3340.00
2023-04-16T06:10:52.176Z,3437.00
2023-04-16T06:11:52.215Z,3449.00
2023-04-16T06:12:52.152Z,3340.00
2023-04-16T06:13:52.165Z,3318.00
2023-04-16T06:14:52.104Z,3570.00
2023-04-16T06:15:52.137Z,3700.00
2023-04-16T06:16:52.094Z,3786.00
2023-04-16T06:17:52.114Z,3807.00
2023-04-16T06:18:52.062Z,3723.00
2023-04-16T06:19:52.058Z,3573.00
2023-04-16T06:20:52.030Z,3518.00
2023-04-16T06:21:52.086Z,3811.00
2023-04-16T06:22:52.025Z,4008.00
2023-04-16T06:23:52.026Z,4090.00
2023-04-16T06:24:51.954Z,4013.00
2023-04-16T06:25:51.985Z,3861.00
2023-04-16T06:26:51.956Z,3853.00
2023-04-16T06:27:53.046Z,3949.00
2023-04-16T06:28:51.957Z,4007.00
2023-04-16T06:29:51.914Z,4116.00
2023-04-16T06:30:51.920Z,4218.00
2023-04-16T06:31:51.992Z,4253.00
2023-04-16T06:32:51.884Z,4205.00
2023-04-16T06:33:51.883Z,4286.00
2023-04-16T06:34:51.860Z,4148.00
2023-04-16T06:35:51.857Z,3685.00
2023-04-16T06:36:51.805Z,3758.00
2023-04-16T06:37:51.831Z,4208.00
2023-04-16T06:38:51.873Z,4298.00
2023-04-16T06:39:51.811Z,4370.00
2023-04-16T06:40:51.891Z,4339.00
2023-04-16T06:41:51.780Z,3988.00
2023-04-16T06:42:51.713Z,4099.00
2023-04-16T06:43:51.730Z,4805.00
2023-04-16T06:44:51.735Z,4984.00
2023-04-16T06:45:51.718Z,4544.00
2023-04-16T06:46:51.749Z,4609.00
2023-04-16T06:47:51.771Z,4699.00
2023-04-16T06:48:51.634Z,4228.00
2023-04-16T06:49:51.637Z,3712.00
2023-04-16T06:50:51.654Z,3630.00
2023-04-16T06:51:51.607Z,3689.00
2023-04-16T06:52:51.784Z,3863.00
2023-04-16T06:53:51.646Z,3473.00
2023-04-16T06:54:51.560Z,3395.00
2023-04-16T06:55:51.587Z,3669.00
2023-04-16T06:56:51.518Z,3423.00
2023-04-16T06:57:51.536Z,3328.00
2023-04-16T06:58:51.642Z,3418.00
2023-04-16T06:59:51.533Z,3568.00
2023-04-16T07:00:51.549Z,3765.00
2023-04-16T07:01:51.591Z,3718.00
2023-04-16T07:02:51.627Z,3553.00
2023-04-16T07:03:51.676Z,3710.00
2023-04-16T07:04:51.466Z,4353.00
2023-04-16T07:05:51.465Z,4311.00
2023-04-16T07:06:51.416Z,3640.00
2023-04-16T07:07:51.411Z,4242.00
2023-04-16T07:08:51.434Z,4194.00
2023-04-16T07:09:51.409Z,3830.00
2023-04-16T07:10:51.352Z,3939.00
2023-04-16T07:11:51.401Z,4176.00
2023-04-16T07:12:51.311Z,4683.00
2023-04-16T07:13:51.331Z,4808.00
2023-04-16T07:14:51.320Z,4946.00
2023-04-16T07:15:51.321Z,4879.00
2023-04-16T07:16:51.390Z,5209.00
2023-04-16T07:17:51.336Z,5387.00
2023-04-16T07:18:51.257Z,5440.00
2023-04-16T07:19:51.244Z,5140.00
2023-04-16T07:20:51.254Z,5428.00
2023-04-16T07:21:51.242Z,5485.00
2023-04-16T07:22:51.293Z,5064.00
2023-04-16T07:23:51.262Z,4827.00
2023-04-16T07:24:51.155Z,4973.00
2023-04-16T07:25:51.173Z,4853.00
2023-04-16T07:26:51.152Z,4492.00
2023-04-16T07:27:51.161Z,4323.00
2023-04-16T07:28:51.248Z,4614.00
2023-04-16T07:29:51.143Z,4766.00
2023-04-16T07:30:51.059Z,4809.00
2023-04-16T07:31:51.103Z,4969.00
2023-04-16T07:32:51.106Z,5077.00
2023-04-16T07:33:51.088Z,5195.00
2023-04-16T07:34:51.064Z,5136.00
2023-04-16T07:35:51.049Z,4995.00
2023-04-16T07:36:51.049Z,5043.00
2023-04-16T07:37:51.012Z,5122.00
2023-04-16T07:38:50.992Z,5078.00
2023-04-16T07:39:50.983Z,4896.00
2023-04-16T07:40:50.980Z,5019.00
2023-04-16T07:41:50.983Z,5097.00
2023-04-16T07:42:50.917Z,5244.00
2023-04-16T07:43:50.969Z,5301.00
2023-04-16T07:44:50.886Z,5547.00
2023-04-16T07:45:50.914Z,5832.00
2023-04-16T07:46:50.979Z,5959.00
2023-04-16T07:47:50.923Z,6056.00
2023-04-16T07:48:50.831Z,6059.00
2023-04-16T07:49:50.845Z,6069.00
2023-04-16T07:50:50.846Z,5945.00
2023-04-16T07:51:50.819Z,5879.00
2023-04-16T07:52:50.924Z,5884.00
2023-04-16T07:53:50.816Z,5781.00
2023-04-16T07:54:50.765Z,5746.00
2023-04-16T07:55:50.784Z,5743.00
2023-04-16T07:56:50.706Z,5836.00
2023-04-16T07:57:50.734Z,6009.00
2023-04-16T07:58:50.834Z,6107.00
2023-04-16T07:59:50.725Z,6238.00
2023-04-16T08:00:51.040Z,6500.00
2023-04-16T08:01:50.784Z,6785.00
2023-04-16T08:02:50.883Z,7012.00
2023-04-16T08:03:51.040Z,7126.00
2023-04-16T08:04:50.976Z,7124.00
2023-04-16T08:05:50.649Z,7055.00
2023-04-16T08:06:50.635Z,6868.00
2023-04-16T08:07:50.621Z,6744.00
2023-04-16T08:08:50.602Z,6625.00
2023-04-16T08:09:50.578Z,6589.00
2023-04-16T08:10:50.638Z,6634.00
2023-04-16T08:11:50.527Z,6639.00
2023-04-16T08:12:50.581Z,6553.00
2023-04-16T08:13:50.545Z,6408.00
2023-04-16T08:14:50.502Z,6301.00
2023-04-16T08:15:50.528Z,6229.00
2023-04-16T08:16:50.630Z,6145.00
2023-04-16T08:17:50.475Z,6009.00
2023-04-16T08:18:50.490Z,5914.00
2023-04-16T08:19:50.434Z,5935.00
2023-04-16T08:20:50.442Z,6010.00
2023-04-16T08:21:50.396Z,6043.00
2023-04-16T08:22:50.549Z,6096.00
2023-04-16T08:23:50.366Z,6171.00
2023-04-16T08:24:50.402Z,6312.00
2023-04-16T08:25:51.808Z,6534.00
2023-04-16T08:26:50.369Z,6955.00
2023-04-16T08:27:50.335Z,7474.00
2023-04-16T08:28:50.447Z,7781.00
2023-04-16T08:29:50.287Z,7799.00
2023-04-16T08:30:50.335Z,7720.00
2023-04-16T08:31:50.376Z,7528.00
2023-04-16T08:32:50.613Z,7498.00
2023-04-16T08:33:50.271Z,7523.00
2023-04-16T08:34:50.292Z,7409.00
2023-04-16T08:35:50.211Z,7440.00
2023-04-16T08:36:50.269Z,7653.00
2023-04-16T08:37:50.206Z,7805.00
2023-04-16T08:38:50.242Z,8056.00
2023-04-16T08:39:50.175Z,8393.00
2023-04-16T08:40:50.335Z,8523.00
2023-04-16T08:41:50.163Z,8535.00
2023-04-16T08:42:50.161Z,8454.00
2023-04-16T08:43:50.114Z,8005.00
2023-04-16T08:44:50.129Z,7604.00
2023-04-16T08:45:50.089Z,7488.00
2023-04-16T08:46:50.206Z,7560.00
2023-04-16T08:47:50.136Z,7692.00
2023-04-16T08:48:50.074Z,7682.00
2023-04-16T08:49:50.013Z,7749.00
2023-04-16T08:50:50.052Z,7763.00
2023-04-16T08:51:50.012Z,7888.00
2023-04-16T08:52:50.037Z,7903.00
2023-04-16T08:53:49.937Z,7647.00
2023-04-16T08:54:56.714Z,7346.00
2023-04-16T08:55:50.948Z,7096.00
2023-04-16T08:56:49.961Z,7110.00
2023-04-16T08:57:49.920Z,7314.00
2023-04-16T08:58:50.046Z,7453.00
2023-04-16T08:59:49.901Z,7296.00
2023-04-16T09:00:49.916Z,6829.00
2023-04-16T09:01:49.897Z,6547.00
2023-04-16T09:02:50.220Z,6575.00
2023-04-16T09:03:49.997Z,6440.00
2023-04-16T09:04:49.892Z,6278.00
2023-04-16T09:05:49.847Z,6281.00
2023-04-16T09:06:49.812Z,6202.00
2023-04-16T09:07:49.794Z,6103.00
2023-04-16T09:08:49.784Z,6329.00
2023-04-16T09:09:49.740Z,6369.00
2023-04-16T09:10:49.916Z,6333.00
2023-04-16T09:11:49.714Z,6467.00
2023-04-16T09:12:49.746Z,6530.00
2023-04-16T09:13:49.707Z,6566.00
2023-04-16T09:14:49.728Z,6807.00
2023-04-16T09:15:49.755Z,7072.00
2023-04-16T09:16:49.700Z,7414.00
2023-04-16T09:17:49.723Z,7093.00
2023-04-16T09:18:49.681Z,6681.00
2023-04-16T09:19:49.607Z,6305.00
2023-04-16T09:20:49.639Z,6200.00
2023-04-16T09:21:49.595Z,6424.00
2023-04-16T09:22:49.616Z,6408.00
2023-04-16T09:23:49.598Z,6281.00
2023-04-16T09:24:49.593Z,6062.00
2023-04-16T09:25:49.559Z,5971.00
2023-04-16T09:26:53.801Z,5919.00
2023-04-16T09:27:49.551Z,5755.00
2023-04-16T09:28:49.524Z,5363.00
2023-04-16T09:29:49.457Z,5333.00
2023-04-16T09:30:49.503Z,5543.00
2023-04-16T09:31:49.478Z,5723.00
2023-04-16T09:32:49.516Z,5770.00
2023-04-16T09:33:49.422Z,5602.00
2023-04-16T09:34:49.426Z,5504.00
2023-04-16T09:35:49.391Z,5424.00
2023-04-16T09:36:49.364Z,5143.00
2023-04-16T09:37:49.321Z,5040.00
2023-04-16T09:38:49.384Z,5405.00
2023-04-16T09:39:49.324Z,5852.00
2023-04-16T09:40:49.343Z,5863.00
2023-04-16T09:41:49.268Z,5615.00
2023-04-16T09:42:49.315Z,5611.00
2023-04-16T09:43:49.235Z,5641.00
2023-04-16T09:44:49.280Z,5696.00
2023-04-16T09:45:49.294Z,5759.00
2023-04-16T09:46:49.262Z,5859.00
2023-04-16T09:47:49.282Z,5979.00
2023-04-16T09:48:49.201Z,5937.00
2023-04-16T09:49:49.158Z,5564.00
2023-04-16T09:50:49.197Z,4976.00
2023-04-16T09:51:49.137Z,4753.00
2023-04-16T09:52:49.258Z,4877.00
2023-04-16T09:53:49.132Z,5326.00
2023-04-16T09:54:49.123Z,5567.00
2023-04-16T09:55:49.086Z,5773.00
2023-04-16T09:56:49.111Z,5607.00
2023-04-16T09:57:49.083Z,5011.00
2023-04-16T09:58:49.092Z,4195.00
2023-04-16T09:59:49.069Z,4078.00
2023-04-16T10:00:49.041Z,4388.00
2023-04-16T10:01:49.139Z,4694.00
2023-04-16T10:02:50.618Z,4850.00
2023-04-16T10:03:49.234Z,4957.00
2023-04-16T10:04:49.074Z,4811.00
2023-04-16T10:05:48.987Z,4600.00
2023-04-16T10:06:48.957Z,4680.00
2023-04-16T10:07:48.939Z,4720.00
2023-04-16T10:08:50.265Z,4507.00
2023-04-16T10:09:48.879Z,4526.00
2023-04-16T10:10:48.950Z,4643.00
2023-04-16T10:11:48.878Z,4693.00
2023-04-16T10:12:48.896Z,4435.00
2023-04-16T10:13:48.856Z,4371.00
2023-04-16T10:14:50.291Z,4538.00
2023-04-16T10:15:48.833Z,4671.00
2023-04-16T10:16:48.966Z,4781.00
2023-04-16T10:17:48.827Z,4887.00
2023-04-16T10:18:48.818Z,5044.00
2023-04-16T10:19:48.753Z,5150.00
2023-04-16T10:20:48.794Z,5711.00
2023-04-16T10:21:48.750Z,6095.00
2023-04-16T10:22:48.779Z,6174.00
2023-04-16T10:23:48.724Z,6106.00
2023-04-16T10:24:48.719Z,6088.00
2023-04-16T10:25:48.674Z,6138.00
2023-04-16T10:26:48.713Z,6248.00
2023-04-16T10:27:48.668Z,6459.00
2023-04-16T10:28:48.678Z,6903.00
2023-04-16T10:29:54.037Z,7378.00
2023-04-16T10:30:49.334Z,7570.00
2023-04-16T10:31:51.924Z,7802.00
2023-04-16T10:32:49.258Z,7836.00
2023-04-16T10:33:51.105Z,7746.00
2023-04-16T10:34:52.565Z,7406.00
2023-04-16T10:35:57.893Z,7032.00
2023-04-16T10:36:50.008Z,6757.00
2023-04-16T10:37:53.394Z,6513.00
2023-04-16T10:38:52.818Z,6396.00
2023-04-16T10:41:03.892Z,0.00
2023-04-16T10:42:11.520Z,6408.00
2023-04-16T10:43:03.170Z,6570.00
2023-04-16T10:44:01.322Z,6977.00
2023-04-16T10:45:02.415Z,7404.00
2023-04-16T10:46:02.455Z,7540.00
2023-04-16T10:47:03.522Z,7624.00
2023-04-16T10:48:01.985Z,7854.00
2023-04-16T10:49:02.126Z,8274.00
2023-04-16T10:50:06.572Z,8721.00
2023-04-16T10:51:01.587Z,8979.00
2023-04-16T10:53:16.489Z,0.00
2023-04-16T10:54:19.258Z,9379.00
2023-04-16T10:55:15.563Z,9625.00
2023-04-16T10:56:44.186Z,9982.00
2023-04-16T10:57:35.021Z,10139.00
2023-04-16T10:58:12.586Z,10616.00
2023-04-16T10:59:18.270Z,11076.00
2023-04-16T11:00:13.861Z,11191.00
2023-04-16T11:01:13.522Z,10930.00
2023-04-16T11:02:13.293Z,10258.00
2023-04-16T11:03:13.100Z,9107.00
2023-04-16T11:04:33.968Z,7945.00
2023-04-16T11:05:12.859Z,7487.00
2023-04-16T11:06:17.337Z,7240.00
2023-04-16T11:07:17.733Z,7909.00
2023-04-16T11:08:26.266Z,8892.00
2023-04-16T11:09:12.840Z,9823.00
2023-04-16T11:10:16.702Z,10515.00
2023-04-16T11:11:13.388Z,10621.00
2023-04-16T11:12:17.271Z,10456.00
2023-04-16T11:13:13.335Z,10795.00
2023-04-16T11:14:17.843Z,11634.00
2023-04-16T11:15:17.753Z,12535.00
2023-04-16T11:16:18.679Z,13072.00
2023-04-16T11:17:13.228Z,13238.00
2023-04-16T11:18:14.530Z,13423.00
2023-04-16T11:19:14.581Z,13802.00
2023-04-16T11:20:19.688Z,13206.00
2023-04-16T11:21:14.279Z,12044.00
2023-04-16T11:22:13.179Z,10786.00
2023-04-16T11:23:12.258Z,10926.00
2023-04-16T11:24:13.850Z,10284.00
2023-04-16T11:25:18.057Z,8601.00
2023-04-16T11:26:15.667Z,8662.00
2023-04-16T11:27:18.629Z,8230.00
2023-04-16T11:28:12.996Z,8719.00
2023-04-16T11:29:12.511Z,8893.00
2023-04-16T11:30:12.533Z,7824.00
2023-04-16T11:31:18.558Z,7203.00
2023-04-16T11:32:13.235Z,7871.00
2023-04-16T11:33:13.042Z,8732.00
2023-04-16T11:34:14.149Z,8918.00
2023-04-16T11:35:16.353Z,8544.00
2023-04-16T11:36:13.469Z,8503.00
2023-04-16T11:37:12.855Z,9591.00
2023-04-16T11:38:12.253Z,9880.00
2023-04-16T11:39:22.245Z,9673.00
2023-04-16T11:40:12.053Z,9956.00
2023-04-16T11:41:12.006Z,10491.00
2023-04-16T11:42:12.047Z,11200.00
2023-04-16T11:43:11.992Z,11701.00
2023-04-16T11:44:12.006Z,11207.00
2023-04-16T11:45:11.933Z,10501.00
2023-04-16T11:46:24.615Z,9838.00
2023-04-16T11:47:12.926Z,9278.00
2023-04-16T11:48:11.966Z,8717.00
2023-04-16T11:49:12.160Z,8977.00
2023-04-16T11:50:11.915Z,9579.00
2023-04-16T11:51:11.840Z,10152.00
2023-04-16T11:52:11.881Z,9761.00
2023-04-16T11:53:11.839Z,9215.00
2023-04-16T11:54:12.305Z,8615.00
2023-04-16T11:55:11.810Z,8123.00
2023-04-16T11:56:11.824Z,7794.00
2023-04-16T11:57:11.757Z,8243.00
2023-04-16T11:58:11.820Z,8972.00
2023-04-16T11:59:11.970Z,9024.00
2023-04-16T12:00:11.762Z,8354.00
2023-04-16T12:01:11.721Z,8290.00
2023-04-16T12:02:11.835Z,8029.00
2023-04-16T12:03:11.918Z,7128.00
2023-04-16T12:04:11.923Z,6997.00
2023-04-16T12:05:11.695Z,7463.00
2023-04-16T12:06:11.686Z,7761.00
2023-04-16T12:07:11.689Z,7872.00
2023-04-16T12:08:11.682Z,8448.00
2023-04-16T12:09:11.726Z,9257.00
2023-04-16T12:10:11.687Z,9589.00
2023-04-16T12:11:11.557Z,9380.00
2023-04-16T12:12:11.597Z,9195.00
2023-04-16T12:13:11.564Z,9579.00
2023-04-16T12:14:11.603Z,9725.00
2023-04-16T12:15:11.564Z,9553.00
2023-04-16T12:16:11.572Z,9395.00
2023-04-16T12:17:11.527Z,9633.00
2023-04-16T12:18:11.560Z,9751.00
2023-04-16T12:19:11.647Z,9419.00
2023-04-16T12:20:11.594Z,9021.00
2023-04-16T12:21:11.841Z,8484.00
2023-04-16T12:22:11.452Z,7622.00
2023-04-16T12:23:11.679Z,6685.00
2023-04-16T12:24:11.452Z,6446.00
2023-04-16T12:25:11.401Z,6952.00
2023-04-16T12:26:11.714Z,7417.00
2023-04-16T12:27:11.369Z,7344.00
2023-04-16T12:28:11.383Z,7241.00
2023-04-16T12:29:11.430Z,7424.00
2023-04-16T12:30:11.390Z,8083.00
2023-04-16T12:31:11.337Z,8828.00
2023-04-16T12:32:11.433Z,8467.00
2023-04-16T12:33:11.340Z,7841.00